CheckWX is a tool to help pilots better visualize weather data.  It is not intended as a substitute for an official pre-flight weather briefing.

00:18:57 UTC

PASY TAF
Eareckson AS Airport
Shemya, Alaska, USA
TAF PASY 202200Z 2022/2204 01009KT 9999 BKN040 QNH2979INS BECMG 2105/2106 17012KT 9000 -SN SCT011 BKN030 600303 QNH2970INS TX02/2120Z TN00/2022Z

Feb-20@
22:00 UTC

Feb-20 @ 22:00 UTC

Feb-21@
05:00 UTC

Feb-21 @ 05:00 UTC

TAF PASY 202200Z 2022/2204 01009KT 9999 BKN040 QNH2979INS
Wind
  • 010° at 9 KTS
Cloud Levels
  • Broken at 4,000' AGL

Feb-21@
05:00 UTC

Feb-21 @ 05:00 UTC

Feb-22@
04:00 UTC

Feb-22 @ 04:00 UTC

BECMG 2105/2106 17012KT 9000 -SN SCT011 BKN030 600303 QNH2970INS TX02/2120Z TN00/2022Z

Becoming

Becoming Conditions expected by Fri, Feb 21, 2020 @ 06:00 UTC

Wind
  • 170° at 12 KTS
Conditions
Light Snow
Cloud Levels
  • Scattered at 1,100' AGL
  • Broken at 3,000' AGL
Icing